Time;durP1;ratioP1;P1;durP2;ratioP2;P2;SDS_P1;SDS_P2;PMS_P1;PMS_P2;Temp;Humidity;BMP_temperature;BMP_pressure;BME280_temperature;BME280_humidity;BME280_pressure;Samples;Min_cycle;Max_cycle;Signal;HPM_P1;HPM_P2
2023/07/10 00:00:19;;;;;;;4.20;3.80;;;;;;;24.33;56.91;101516.75;4977454;28;96696;-43
2023/07/10 00:02:44;;;;;;;4.30;3.90;;;;;;;24.31;57.17;101510.94;4977304;28;97013;-43
2023/07/10 00:05:14;;;;;;;3.87;3.43;;;;;;;24.29;57.40;101512.81;4975982;28;97046;-44
2023/07/10 00:07:41;;;;;;;4.90;3.30;;;;;;;24.28;57.35;101508.53;4979682;28;96702;-43
2023/07/10 00:10:09;;;;;;;4.20;3.80;;;;;;;24.26;57.02;101499.91;4981007;28;97144;-43
2023/07/10 00:12:35;;;;;;;4.97;3.80;;;;;;;24.23;57.37;101489.78;4979479;28;99595;-43
2023/07/10 00:15:01;;;;;;;4.23;3.50;;;;;;;24.20;57.27;101486.03;4977147;28;97288;-43
2023/07/10 00:17:26;;;;;;;3.93;3.53;;;;;;;24.18;57.12;101491.47;4978031;28;96823;-44
2023/07/10 00:19:51;;;;;;;5.20;3.50;;;;;;;24.17;57.29;101481.56;4979625;28;97033;-44
2023/07/10 00:22:17;;;;;;;17.17;3.30;;;;;;;24.15;57.33;101480.63;4978365;28;97215;-44
2023/07/10 00:24:42;;;;;;;3.57;3.27;;;;;;;24.13;57.27;101478.41;4975223;28;97185;-43
2023/07/10 00:27:12;;;;;;;3.60;3.30;;;;;;;24.10;57.54;101475.94;4980882;28;97242;-44
2023/07/10 00:29:38;;;;;;;4.23;3.33;;;;;;;24.07;57.19;101483.47;4983853;28;96973;-43
2023/07/10 00:32:10;;;;;;;3.43;3.13;;;;;;;24.05;57.72;101483.28;4976161;28;96941;-43
2023/07/10 00:34:36;;;;;;;4.30;3.97;;;;;;;24.05;57.41;101482.56;4975795;28;97139;-43
2023/07/10 00:37:01;;;;;;;4.50;3.20;;;;;;;23.99;57.27;101471.47;4978244;28;97445;-44
2023/07/10 00:39:29;;;;;;;3.73;3.43;;;;;;;23.89;57.52;101470.56;4976270;28;96950;-43
2023/07/10 00:41:58;;;;;;;3.77;3.50;;;;;;;23.85;57.72;101470.94;4975279;28;97341;-44
2023/07/10 00:44:31;;;;;;;3.90;3.60;;;;;;;23.83;57.97;101470.00;4976143;28;97263;-43
2023/07/10 00:47:02;;;;;;;4.20;3.80;;;;;;;23.81;57.80;101467.75;4977002;28;97062;-43
2023/07/10 00:49:45;;;;;;;4.70;3.63;;;;;;;23.76;58.45;101471.50;4978844;28;97071;-44
2023/07/10 00:52:16;;;;;;;3.80;3.50;;;;;;;23.74;57.54;101485.38;4974863;28;96648;-43
2023/07/10 00:54:48;;;;;;;4.03;3.60;;;;;;;23.74;58.45;101496.63;4977446;28;97328;-43
2023/07/10 00:57:19;;;;;;;3.80;3.33;;;;;;;23.76;57.93;101488.38;4975793;28;96660;-43
2023/07/10 00:59:44;;;;;;;3.40;3.10;;;;;;;23.74;57.86;101496.63;4976633;28;96907;-44
2023/07/10 01:02:12;;;;;;;5.43;3.53;;;;;;;23.75;57.88;101536.72;4979862;28;97457;-43
2023/07/10 01:04:40;;;;;;;4.03;3.73;;;;;;;23.74;58.00;101566.16;4978999;28;97267;-44
2023/07/10 01:07:08;;;;;;;4.10;3.70;;;;;;;23.72;58.12;101585.66;4976270;28;97159;-43
2023/07/10 01:09:34;;;;;;;3.77;3.47;;;;;;;23.71;58.29;101601.00;4978351;28;97158;-43
2023/07/10 01:11:59;;;;;;;4.20;3.90;;;;;;;23.68;58.33;101582.44;4977075;28;96993;-43
2023/07/10 01:14:25;;;;;;;4.23;3.60;;;;;;;23.67;58.26;101525.50;4976100;28;97171;-43
2023/07/10 01:16:52;;;;;;;5.40;3.87;;;;;;;23.67;58.20;101485.41;4978535;28;97163;-43
2023/07/10 01:19:21;;;;;;;4.23;3.90;;;;;;;23.52;58.67;101458.09;4979232;28;97146;-43
2023/07/10 01:21:47;;;;;;;3.87;3.57;;;;;;;23.58;58.80;101491.59;4981761;28;97279;-43
2023/07/10 01:24:13;;;;;;;3.53;3.30;;;;;;;23.58;58.74;101500.78;4979199;28;97117;-43
2023/07/10 01:26:39;;;;;;;3.83;3.53;;;;;;;23.60;58.78;101494.59;4982138;28;97085;-44
2023/07/10 01:29:24;;;;;;;3.97;3.67;;;;;;;23.59;59.74;101479.06;4979862;28;96825;-44
2023/07/10 01:31:55;;;;;;;4.30;3.63;;;;;;;23.58;59.51;101472.69;4976985;28;97597;-44
2023/07/10 01:34:25;;;;;;;3.67;3.37;;;;;;;23.59;58.90;101460.13;4975839;28;97193;-43
2023/07/10 01:36:53;;;;;;;4.03;3.63;;;;;;;23.63;59.08;101471.00;4978792;28;97090;-43
2023/07/10 01:39:32;;;;;;;4.70;3.80;;;;;;;23.65;59.94;101483.19;4975092;28;96795;-44
2023/07/10 01:41:57;;;;;;;4.40;3.73;;;;;;;23.67;59.07;101477.00;4975290;28;97233;-43
2023/07/10 01:44:29;;;;;;;3.67;3.40;;;;;;;23.69;59.31;101489.16;4976654;28;97167;-42
2023/07/10 01:46:56;;;;;;;3.63;3.20;;;;;;;23.71;59.38;101497.03;4979305;28;97046;-43
2023/07/10 01:49:27;;;;;;;4.40;3.87;;;;;;;23.73;59.39;101512.00;4977986;28;97193;-43
2023/07/10 01:51:54;;;;;;;5.87;4.07;;;;;;;23.75;59.25;101526.25;4976127;28;97472;-45
2023/07/10 01:54:20;;;;;;;4.00;3.60;;;;;;;23.75;59.24;101537.47;4978094;28;96717;-44
2023/07/10 01:56:46;;;;;;;4.30;3.30;;;;;;;23.77;59.39;101539.72;4975838;28;97464;-44
2023/07/10 01:59:11;;;;;;;4.57;4.17;;;;;;;23.77;59.30;101551.72;4977978;28;97454;-43
2023/07/10 02:01:37;;;;;;;3.80;3.43;;;;;;;23.78;59.31;101558.84;4980868;28;97486;-44
2023/07/10 02:04:03;;;;;;;4.37;3.87;;;;;;;23.78;59.32;101563.72;4979907;28;96902;-43
2023/07/10 02:06:30;;;;;;;4.30;3.90;;;;;;;23.78;59.25;101572.91;4974616;28;96844;-44
2023/07/10 02:08:56;;;;;;;6.40;4.37;;;;;;;23.79;59.47;101577.19;4976327;28;97354;-43
2023/07/10 02:11:21;;;;;;;5.40;3.97;;;;;;;23.77;59.47;101579.06;4979247;28;97026;-43
2023/07/10 02:13:46;;;;;;;5.33;3.90;;;;;;;23.76;59.53;101571.97;4976973;28;97211;-44
2023/07/10 02:16:14;;;;;;;4.27;3.87;;;;;;;23.75;59.31;101545.91;4975402;28;97194;-43
2023/07/10 02:18:39;;;;;;;5.10;4.50;;;;;;;23.68;59.52;101531.84;4976657;28;96779;-43
2023/07/10 02:21:04;;;;;;;5.90;3.70;;;;;;;23.64;59.75;101523.06;4976112;28;97112;-44
2023/07/10 02:23:30;;;;;;;5.57;3.87;;;;;;;23.62;60.04;101536.94;4975569;28;96882;-44
2023/07/10 02:25:55;;;;;;;4.67;4.17;;;;;;;23.64;59.98;101546.28;4977353;28;97061;-44
2023/07/10 02:28:21;;;;;;;3.97;3.67;;;;;;;23.66;59.91;101540.84;4973822;28;97401;-44
2023/07/10 02:30:47;;;;;;;6.40;4.10;;;;;;;23.70;59.93;101532.03;4975329;28;97290;-43
2023/07/10 02:33:12;;;;;;;5.03;3.43;;;;;;;23.66;59.52;101518.38;4976389;28;97012;-43
2023/07/10 02:35:38;;;;;;;4.27;3.87;;;;;;;23.61;59.85;101527.75;4973330;28;96691;-43
2023/07/10 02:38:03;;;;;;;4.30;3.90;;;;;;;23.60;59.77;101547.97;4976188;28;97293;-44
2023/07/10 02:40:29;;;;;;;4.50;4.13;;;;;;;23.60;59.78;101540.31;4973503;28;97539;-44
2023/07/10 02:42:54;;;;;;;5.33;4.30;;;;;;;23.61;60.06;101527.75;4975193;28;109523;-42
2023/07/10 02:45:19;;;;;;;7.50;4.63;;;;;;;23.52;60.17;101533.94;4974488;28;97548;-43
2023/07/10 02:47:45;;;;;;;4.97;4.47;;;;;;;23.50;60.25;101544.25;4977281;28;97318;-44
2023/07/10 02:50:11;;;;;;;4.73;3.70;;;;;;;23.53;60.29;101548.72;4973855;28;97462;-44
2023/07/10 02:52:36;;;;;;;7.33;4.90;;;;;;;23.57;60.21;101527.38;4978576;28;97183;-43
2023/07/10 02:55:02;;;;;;;6.13;4.50;;;;;;;23.56;59.84;101519.53;4976474;28;96941;-44
2023/07/10 02:57:27;;;;;;;9.77;4.20;;;;;;;23.53;60.13;101524.19;4976628;28;96985;-44
2023/07/10 02:59:52;;;;;;;5.30;4.80;;;;;;;23.52;60.28;101514.28;4976577;28;107966;-44
2023/07/10 03:02:18;;;;;;;5.50;4.80;;;;;;;23.51;60.12;101512.03;4976527;28;96652;-44
2023/07/10 03:04:44;;;;;;;5.27;4.77;;;;;;;23.48;60.06;101510.34;4978236;28;96629;-44
2023/07/10 03:07:09;;;;;;;4.57;4.27;;;;;;;23.46;59.99;101499.66;4976550;28;97087;-43
2023/07/10 03:09:35;;;;;;;4.87;4.47;;;;;;;23.39;60.33;101494.06;4978224;28;97784;-43
2023/07/10 03:12:00;;;;;;;6.10;5.50;;;;;;;23.35;60.39;101499.31;4971957;28;97415;-44
2023/07/10 03:14:25;;;;;;;5.23;4.73;;;;;;;23.33;60.33;101496.28;4975132;28;97106;-43
2023/07/10 03:16:51;;;;;;;5.70;5.10;;;;;;;23.29;60.59;101496.66;4976648;28;97256;-43
2023/07/10 03:19:16;;;;;;;5.63;5.03;;;;;;;23.30;60.49;101486.16;4979160;28;97389;-44
2023/07/10 03:21:42;;;;;;;6.20;5.60;;;;;;;23.30;60.75;101475.69;4975187;28;105471;-44
2023/07/10 03:24:07;;;;;;;6.80;5.50;;;;;;;23.30;60.57;101494.59;4978744;28;97036;-43
2023/07/10 03:26:33;;;;;;;5.90;5.40;;;;;;;23.29;60.67;101493.84;4974614;28;97356;-44
2023/07/10 03:29:05;;;;;;;5.33;4.90;;;;;;;23.31;61.22;101505.25;4974270;28;96837;-44
2023/07/10 03:31:31;;;;;;;5.57;5.07;;;;;;;23.30;60.97;101500.97;4973850;28;97933;-43
2023/07/10 03:33:57;;;;;;;4.93;4.43;;;;;;;23.33;60.86;101513.91;4975534;28;97169;-43
2023/07/10 03:36:22;;;;;;;6.27;5.63;;;;;;;23.36;60.98;101507.16;4974199;28;97003;-44
2023/07/10 03:38:47;;;;;;;6.27;5.67;;;;;;;23.39;60.96;101514.47;4975799;28;96855;-44
2023/07/10 03:41:12;;;;;;;5.77;5.17;;;;;;;23.42;60.91;101490.88;4978291;28;110364;-43
2023/07/10 03:43:38;;;;;;;6.87;5.70;;;;;;;23.44;61.10;101488.25;4976735;28;97215;-43
2023/07/10 03:46:03;;;;;;;6.17;5.27;;;;;;;23.44;60.73;101491.03;4978531;28;97141;-44
2023/07/10 03:48:28;;;;;;;7.57;5.87;;;;;;;23.45;61.07;101486.94;4966919;28;97308;-43
2023/07/10 03:50:54;;;;;;;6.63;5.93;;;;;;;23.46;61.02;101491.22;4970316;28;97213;-44
2023/07/10 03:53:19;;;;;;;11.30;6.60;;;;;;;23.44;61.08;101493.84;4974821;28;96965;-43
2023/07/10 03:55:53;;;;;;;6.43;5.40;;;;;;;23.48;61.31;101502.66;4976249;28;97283;-43
2023/07/10 03:58:24;;;;;;;6.63;6.03;;;;;;;23.47;61.40;101501.16;4972152;28;97388;-44
2023/07/10 04:00:51;;;;;;;6.03;5.47;;;;;;;23.50;61.18;101499.31;4974983;28;97526;-43
2023/07/10 04:03:19;;;;;;;5.70;5.20;;;;;;;23.50;61.14;101502.84;4980054;28;97405;-44
2023/07/10 04:05:49;;;;;;;7.20;6.57;;;;;;;23.49;61.03;101498.53;4980479;28;96777;-44
2023/07/10 04:08:14;;;;;;;7.70;5.90;;;;;;;23.53;61.02;101492.53;4976810;28;97408;-44
2023/07/10 04:10:39;;;;;;;5.97;5.43;;;;;;;23.53;61.16;101493.28;4976943;28;97048;-44
2023/07/10 04:13:05;;;;;;;9.00;6.03;;;;;;;23.53;61.34;101486.91;4976993;28;96641;-45
2023/07/10 04:15:30;;;;;;;7.30;5.77;;;;;;;23.51;61.19;101497.97;4983267;28;97795;-43
2023/07/10 04:17:55;;;;;;;8.20;5.97;;;;;;;23.52;61.28;101503.06;4979073;28;97390;-43
2023/07/10 04:20:21;;;;;;;8.53;5.20;;;;;;;23.53;61.02;101506.59;4978916;28;102372;-44
2023/07/10 04:22:46;;;;;;;6.63;5.93;;;;;;;23.53;61.15;101507.34;4980465;28;97480;-43
2023/07/10 04:25:11;;;;;;;6.63;6.00;;;;;;;23.54;61.30;101505.28;4978694;28;97116;-43
2023/07/10 04:27:37;;;;;;;5.83;5.30;;;;;;;23.54;61.33;101508.09;4975903;28;96956;-43
2023/07/10 04:30:02;;;;;;;8.30;5.80;;;;;;;23.52;61.47;101508.66;4980696;28;97355;-43
2023/07/10 04:32:28;;;;;;;7.73;5.90;;;;;;;23.51;61.19;101506.41;4981951;28;96792;-44
2023/07/10 04:34:53;;;;;;;8.30;6.00;;;;;;;23.51;61.38;101515.59;4978328;28;97197;-44
2023/07/10 04:37:18;;;;;;;6.03;5.43;;;;;;;23.51;61.38;101515.59;4975041;28;97127;-43
2023/07/10 04:39:44;;;;;;;6.83;6.23;;;;;;;23.52;61.48;101502.28;4976292;28;98346;-43
2023/07/10 04:42:09;;;;;;;7.47;6.30;;;;;;;23.55;61.27;101501.16;4979748;28;97216;-44
2023/07/10 04:44:34;;;;;;;7.13;5.87;;;;;;;23.56;61.30;101495.00;4978424;28;97107;-44
2023/07/10 04:47:00;;;;;;;11.00;7.10;;;;;;;23.58;61.36;101489.56;4976046;28;97144;-44
2023/07/10 04:49:25;;;;;;;7.23;6.60;;;;;;;23.60;61.53;101483.34;4976299;28;97180;-44
2023/07/10 04:51:51;;;;;;;8.03;6.40;;;;;;;23.62;61.54;101478.69;4977240;28;97284;-43
2023/07/10 04:54:16;;;;;;;6.67;6.07;;;;;;;23.65;61.22;101483.19;4977310;28;96861;-44
2023/07/10 04:56:42;;;;;;;6.47;5.87;;;;;;;23.66;61.53;101475.47;4978748;28;97386;-44
2023/07/10 04:59:07;;;;;;;8.87;6.80;;;;;;;23.67;61.52;101474.94;4977481;28;97103;-44
2023/07/10 05:01:33;;;;;;;6.63;5.93;;;;;;;23.68;61.50;101476.41;4975409;28;97067;-43
2023/07/10 05:03:59;;;;;;;6.97;6.33;;;;;;;23.69;61.65;101480.72;4978248;28;96676;-44
2023/07/10 05:06:25;;;;;;;5.87;5.33;;;;;;;23.73;61.53;101488.78;4977135;28;97400;-44
2023/07/10 05:08:53;;;;;;;10.63;6.87;;;;;;;23.72;61.56;101501.34;4975426;28;97233;-44
2023/07/10 05:11:18;;;;;;;6.53;5.93;;;;;;;23.72;61.60;101496.44;4976536;28;96545;-43
2023/07/10 05:13:44;;;;;;;8.17;7.00;;;;;;;23.71;61.68;101506.22;4977667;28;96834;-44
2023/07/10 05:16:09;;;;;;;12.33;7.10;;;;;;;23.71;61.78;101508.25;4977207;28;97316;-43
2023/07/10 05:18:35;;;;;;;8.13;7.30;;;;;;;23.70;61.68;101515.19;4974980;28;97156;-44
2023/07/10 05:21:01;;;;;;;10.83;8.70;;;;;;;23.64;61.86;101514.63;4978979;28;96982;-43
2023/07/10 05:23:26;;;;;;;9.87;8.70;;;;;;;23.64;61.99;101535.06;4974928;28;97276;-44
2023/07/10 05:26:01;;;;;;;10.23;8.90;;;;;;;23.61;62.09;101538.97;4975555;28;97188;-43
2023/07/10 05:28:27;;;;;;;10.90;9.80;;;;;;;23.58;62.08;101545.75;4977541;28;97852;-43
2023/07/10 05:30:54;;;;;;;11.43;9.53;;;;;;;23.57;62.08;101544.22;4976629;28;96995;-44
2023/07/10 05:33:20;;;;;;;10.93;9.80;;;;;;;23.57;62.05;101535.81;4976604;28;96960;-44
2023/07/10 05:35:53;;;;;;;11.03;9.70;;;;;;;23.55;62.39;101537.69;4976917;28;97550;-44
2023/07/10 05:38:19;;;;;;;9.90;8.87;;;;;;;23.54;62.20;101544.63;4976465;28;98816;-43
2023/07/10 05:40:45;;;;;;;9.83;8.97;;;;;;;23.53;62.06;101540.31;4975405;28;96724;-44
2023/07/10 05:43:10;;;;;;;10.23;9.23;;;;;;;23.51;62.06;101543.69;4977514;28;97385;-44
2023/07/10 05:45:35;;;;;;;10.67;8.37;;;;;;;23.52;62.35;101548.00;4974255;28;102253;-43
2023/07/10 05:48:00;;;;;;;10.17;9.10;;;;;;;23.55;62.27;101540.47;4976307;28;96755;-43
2023/07/10 05:50:26;;;;;;;11.70;7.73;;;;;;;23.56;62.22;101551.19;4975656;28;96932;-43
2023/07/10 05:52:51;;;;;;;10.17;8.30;;;;;;;23.55;62.26;101558.09;4975184;28;97126;-44
2023/07/10 05:55:16;;;;;;;8.53;7.57;;;;;;;23.53;62.35;101565.59;4977677;28;111525;-44
2023/07/10 05:57:42;;;;;;;8.77;7.90;;;;;;;23.48;62.33;101560.91;4975452;28;108947;-44
2023/07/10 06:00:07;;;;;;;7.60;6.90;;;;;;;23.46;62.34;101567.09;4976613;28;97353;-44
2023/07/10 06:02:33;;;;;;;7.20;6.50;;;;;;;23.49;62.33;101568.78;4979857;28;97096;-44
2023/07/10 06:04:58;;;;;;;9.30;8.40;;;;;;;23.48;62.18;101572.88;4974230;28;110963;-43
2023/07/10 06:07:23;;;;;;;8.33;7.53;;;;;;;23.47;62.46;101579.81;4972077;28;105464;-44
2023/07/10 06:09:49;;;;;;;10.37;8.03;;;;;;;23.49;62.13;101582.81;4980295;28;97336;-44
2023/07/10 06:12:14;;;;;;;9.00;8.00;;;;;;;23.48;62.25;101581.31;4974442;28;97247;-43
2023/07/10 06:14:39;;;;;;;12.07;8.27;;;;;;;23.49;62.44;101577.19;4976743;28;97936;-44
2023/07/10 06:17:04;;;;;;;9.00;7.40;;;;;;;23.47;62.27;101574.22;4975404;28;97151;-44
2023/07/10 06:19:30;;;;;;;10.73;8.87;;;;;;;23.50;62.61;101586.38;4975216;28;97129;-43
2023/07/10 06:22:10;;;;;;;8.80;7.90;;;;;;;23.52;63.07;101595.75;4977745;28;97198;-43
2023/07/10 06:24:35;;;;;;;9.73;8.20;;;;;;;23.53;62.56;101591.63;4976239;28;97027;-43
2023/07/10 06:27:02;;;;;;;9.97;8.50;;;;;;;23.57;62.49;101586.38;4975682;28;97249;-43
2023/07/10 06:29:27;;;;;;;11.80;9.33;;;;;;;23.60;62.54;101599.31;4975467;28;96802;-44
2023/07/10 06:31:52;;;;;;;10.77;9.27;;;;;;;23.62;62.47;101593.88;4978156;28;97913;-44
2023/07/10 06:34:18;;;;;;;10.83;9.00;;;;;;;23.65;62.58;101606.06;4975130;28;97304;-44
2023/07/10 06:36:43;;;;;;;10.60;9.50;;;;;;;23.64;62.69;101605.31;4975956;28;107033;-43
2023/07/10 06:39:08;;;;;;;11.17;9.03;;;;;;;23.66;62.66;101608.31;4974607;28;97216;-43
2023/07/10 06:41:33;;;;;;;10.17;8.97;;;;;;;23.70;62.56;101611.47;4974415;28;96997;-43
2023/07/10 06:43:59;;;;;;;11.90;8.93;;;;;;;23.72;62.55;101611.66;4974366;28;97174;-43
2023/07/10 06:46:25;;;;;;;13.00;10.63;;;;;;;23.71;62.30;101615.81;4975239;28;96932;-43
2023/07/10 06:48:51;;;;;;;13.30;9.00;;;;;;;23.68;62.45;101622.53;4975530;28;98444;-44
2023/07/10 06:51:16;;;;;;;10.60;9.17;;;;;;;23.66;62.82;101619.53;4977954;28;97113;-43
2023/07/10 06:53:42;;;;;;;12.30;9.83;;;;;;;23.64;62.86;101610.94;4973565;28;96695;-43
2023/07/10 06:56:07;;;;;;;12.30;10.10;;;;;;;23.64;62.82;101616.53;4977132;28;101403;-44
2023/07/10 06:58:33;;;;;;;11.10;9.60;;;;;;;23.69;62.98;101609.25;4976206;28;97181;-44
2023/07/10 07:01:00;;;;;;;10.57;9.47;;;;;;;23.73;62.55;101613.19;4977097;28;97025;-45
2023/07/10 07:03:27;;;;;;;10.80;9.43;;;;;;;23.74;62.53;101603.41;4975544;28;97289;-43
2023/07/10 07:05:53;;;;;;;10.00;8.77;;;;;;;23.76;62.60;101605.69;4976823;28;97224;-43
2023/07/10 07:08:20;;;;;;;10.00;8.70;;;;;;;23.76;62.74;101602.88;4976767;28;96856;-44
2023/07/10 07:10:50;;;;;;;9.17;8.20;;;;;;;23.74;62.54;101597.06;4975211;28;97031;-43
2023/07/10 07:13:16;;;;;;;8.30;7.50;;;;;;;23.73;62.68;101592.75;4976950;28;97620;-43
2023/07/10 07:15:41;;;;;;;8.70;7.80;;;;;;;23.72;63.25;101599.69;4973708;28;97484;-43
2023/07/10 07:18:07;;;;;;;8.50;6.50;;;;;;;23.73;63.11;101604.75;4973576;28;97176;-44
2023/07/10 07:20:33;;;;;;;8.00;6.23;;;;;;;23.73;63.08;101607.56;4977434;28;97151;-43
2023/07/10 07:22:59;;;;;;;6.37;5.73;;;;;;;23.72;62.95;101608.13;4974684;28;96855;-44
2023/07/10 07:25:27;;;;;;;7.10;6.40;;;;;;;23.74;62.73;101611.84;4974993;28;97181;-44
2023/07/10 07:27:52;;;;;;;6.03;5.50;;;;;;;23.76;63.17;101619.75;4972413;28;97254;-44
2023/07/10 07:30:18;;;;;;;6.57;5.87;;;;;;;23.77;62.95;101616.38;4975502;28;97221;-43
2023/07/10 07:32:44;;;;;;;5.97;5.40;;;;;;;23.76;62.86;101623.28;4973457;28;97127;-44
2023/07/10 07:35:10;;;;;;;6.90;6.20;;;;;;;23.75;62.89;101623.84;4973657;28;97081;-43
2023/07/10 07:37:35;;;;;;;6.67;6.00;;;;;;;23.75;63.01;101626.66;4977283;28;97241;-44
2023/07/10 07:40:02;;;;;;;6.40;5.80;;;;;;;23.76;62.88;101633.78;4980099;28;97299;-44
2023/07/10 07:42:28;;;;;;;8.10;5.90;;;;;;;23.77;62.89;101627.59;4979255;28;97331;-44
2023/07/10 07:44:53;;;;;;;6.33;5.73;;;;;;;23.75;63.06;101633.03;4976651;28;97777;-43
2023/07/10 07:47:18;;;;;;;6.50;5.43;;;;;;;23.77;62.73;101635.28;4978896;28;97272;-44
2023/07/10 07:49:44;;;;;;;7.23;6.47;;;;;;;23.80;62.73;101634.16;4979704;28;96939;-43
2023/07/10 07:52:09;;;;;;;6.63;5.90;;;;;;;23.81;63.03;101636.41;4977553;28;97099;-44
2023/07/10 07:54:34;;;;;;;5.73;5.10;;;;;;;23.88;62.88;101632.09;4974860;28;97232;-44
2023/07/10 07:57:00;;;;;;;6.90;5.73;;;;;;;23.96;62.78;101634.91;4978448;28;98049;-43
2023/07/10 07:59:25;;;;;;;6.20;5.10;;;;;;;24.01;62.81;101633.97;4979072;28;97119;-43
2023/07/10 08:01:51;;;;;;;7.03;5.90;;;;;;;24.02;62.71;101633.41;4978307;28;103285;-43
2023/07/10 08:04:18;;;;;;;6.60;5.83;;;;;;;24.00;62.96;101629.66;4977467;28;96694;-43
2023/07/10 08:06:45;;;;;;;8.70;5.80;;;;;;;23.99;62.73;101628.91;4978861;28;97884;-43
2023/07/10 08:09:10;;;;;;;7.33;5.60;;;;;;;23.99;62.99;101637.34;4979437;28;97457;-44
2023/07/10 08:11:36;;;;;;;7.00;5.93;;;;;;;23.98;62.66;101640.72;4979181;28;101800;-43
2023/07/10 08:14:01;;;;;;;6.90;5.70;;;;;;;23.98;63.11;101643.53;4978305;28;97981;-43
2023/07/10 08:16:26;;;;;;;6.00;4.73;;;;;;;23.98;62.80;101649.16;4976264;28;97148;-43
2023/07/10 08:18:52;;;;;;;6.83;5.40;;;;;;;23.97;63.17;101651.22;4978186;28;97255;-43
2023/07/10 08:21:18;;;;;;;5.20;4.70;;;;;;;23.93;62.82;101659.28;4980598;28;97157;-43
2023/07/10 08:23:44;;;;;;;10.00;5.37;;;;;;;23.92;63.02;101657.75;4976254;28;97040;-43
2023/07/10 08:26:09;;;;;;;6.00;5.40;;;;;;;23.94;62.98;101665.66;4974896;28;97245;-43
2023/07/10 08:28:34;;;;;;;6.30;5.23;;;;;;;23.99;63.12;101662.66;4976092;28;96911;-43
2023/07/10 08:31:00;;;;;;;7.00;5.40;;;;;;;24.06;63.09;101667.56;4976142;28;96933;-44
2023/07/10 08:33:26;;;;;;;6.40;5.53;;;;;;;24.10;62.88;101667.94;4973477;28;97360;-43
2023/07/10 08:36:00;;;;;;;5.33;4.83;;;;;;;24.18;63.21;101673.56;4975442;28;96721;-44
2023/07/10 08:38:25;;;;;;;9.20;5.00;;;;;;;24.22;62.70;101671.09;4975194;28;97331;-44
2023/07/10 08:40:54;;;;;;;6.27;5.00;;;;;;;24.23;62.60;101670.53;4976954;28;96730;-43
2023/07/10 08:43:29;;;;;;;5.73;5.13;;;;;;;24.27;62.91;101670.16;4978117;28;98364;-44
2023/07/10 08:46:33;;;;;;;4.07;3.77;;;;;;;24.25;63.42;101679.16;4976807;28;96942;-44
2023/07/10 08:49:04;;;;;;;4.33;3.93;;;;;;;24.25;62.79;101679.16;4981619;28;97136;-44
2023/07/10 08:51:43;;;;;;;5.00;4.50;;;;;;;24.23;63.16;101678.22;4980919;28;97331;-43
2023/07/10 08:54:12;;;;;;;4.40;4.00;;;;;;;24.22;62.70;101682.38;4977843;28;96770;-43
2023/07/10 08:56:47;;;;;;;5.93;4.50;;;;;;;24.29;63.16;101684.41;4976870;28;97035;-43
2023/07/10 08:59:21;;;;;;;5.97;5.10;;;;;;;24.38;62.78;101681.00;4975677;28;97628;-43
2023/07/10 09:01:47;;;;;;;4.83;4.43;;;;;;;24.52;62.60;101685.13;4975225;28;97380;-44
2023/07/10 09:04:16;;;;;;;5.23;4.73;;;;;;;24.61;62.92;101675.34;4975843;28;97219;-43
2023/07/10 09:06:53;;;;;;;5.27;4.00;;;;;;;24.69;62.69;101681.69;4974593;28;97359;-43
2023/07/10 09:09:38;;;;;;;4.87;4.37;;;;;;;24.82;62.96;101668.19;4974443;28;96979;-43
2023/07/10 09:12:11;;;;;;;4.90;3.80;;;;;;;25.00;62.52;101681.06;4976221;28;97336;-44
2023/07/10 09:14:49;;;;;;;5.30;4.00;;;;;;;25.20;62.98;101674.41;4976790;28;97601;-43
2023/07/10 09:17:32;;;;;;;4.67;4.27;;;;;;;25.37;62.24;101681.44;4977355;28;97215;-43
2023/07/10 09:20:03;;;;;;;4.23;3.83;;;;;;;25.51;61.81;101680.63;4982075;28;97115;-44
2023/07/10 09:22:31;;;;;;;4.00;3.70;;;;;;;25.64;61.73;101677.53;4977545;28;96823;-44
2023/07/10 09:24:56;;;;;;;5.67;3.80;;;;;;;25.77;61.34;101682.94;4975387;28;97098;-43
2023/07/10 09:27:23;;;;;;;4.67;3.23;;;;;;;25.80;60.94;101687.41;4974285;28;97625;-43
2023/07/10 09:29:52;;;;;;;6.53;3.70;;;;;;;25.76;61.11;101687.06;4975311;28;96953;-43
2023/07/10 09:32:19;;;;;;;3.27;3.07;;;;;;;25.88;61.05;101682.44;4974667;28;97483;-44
2023/07/10 09:34:51;;;;;;;3.80;3.20;;;;;;;26.03;60.89;101690.06;4974846;28;97078;-44
2023/07/10 09:37:19;;;;;;;4.20;3.30;;;;;;;26.14;60.19;101686.03;4974537;28;97200;-43
2023/07/10 09:39:45;;;;;;;3.90;3.30;;;;;;;26.17;59.87;101691.25;4977553;28;97199;-44
2023/07/10 09:42:19;;;;;;;5.07;2.90;;;;;;;26.08;59.36;101691.88;4976382;28;97015;-44
2023/07/10 09:44:51;;;;;;;2.97;2.77;;;;;;;26.04;59.07;101691.53;4973947;28;97303;-44
2023/07/10 09:47:18;;;;;;;3.13;2.90;;;;;;;26.13;59.52;101690.16;4975308;28;97227;-43
2023/07/10 09:49:47;;;;;;;3.87;2.83;;;;;;;26.22;59.15;101695.94;4977328;28;97114;-44
2023/07/10 09:52:18;;;;;;;3.97;3.00;;;;;;;26.34;59.01;101693.38;4974676;28;96701;-44
2023/07/10 09:54:44;;;;;;;3.10;2.80;;;;;;;26.43;58.70;101693.47;4975129;28;97039;-43
2023/07/10 09:57:18;;;;;;;3.10;2.80;;;;;;;26.46;58.60;101697.22;4974175;28;97420;-43
2023/07/10 09:59:57;;;;;;;4.23;2.80;;;;;;;26.53;58.37;101697.13;4977061;28;96709;-44
2023/07/10 10:03:02;;;;;;;2.97;2.77;;;;;;;26.59;58.93;101702.53;4972840;28;98017;-43
2023/07/10 10:05:28;;;;;;;2.50;2.30;;;;;;;26.62;58.42;101699.31;4974985;28;97095;-43
2023/07/10 10:08:01;;;;;;;2.83;2.63;;;;;;;26.67;58.10;101711.66;4976659;28;97429;-43
2023/07/10 10:10:27;;;;;;;2.93;2.43;;;;;;;26.69;58.23;101704.09;4978868;28;97097;-45
2023/07/10 10:13:15;;;;;;;4.47;2.70;;;;;;;26.72;56.71;101705.78;4979506;28;97106;-44
2023/07/10 10:15:47;;;;;;;3.47;2.40;;;;;;;26.92;56.98;101705.97;4977294;28;98582;-44
2023/07/10 10:18:33;;;;;;;2.60;1.97;;;;;;;26.93;57.00;101704.66;4976799;28;97604;-44
2023/07/10 10:21:01;;;;;;;3.67;2.23;;;;;;;26.98;56.86;101704.38;4976733;28;97166;-44
2023/07/10 10:23:33;;;;;;;3.20;2.27;;;;;;;26.95;55.73;101702.75;4972422;28;97023;-44
2023/07/10 10:26:40;;;;;;;2.70;2.37;;;;;;;26.91;55.53;101707.31;4973386;28;97431;-44
2023/07/10 10:29:43;;;;;;;4.80;2.80;;;;;;;26.87;56.39;101701.31;4977465;28;97265;-44
2023/07/10 10:32:08;;;;;;;2.53;2.33;;;;;;;26.95;56.61;101708.38;4972482;28;97356;-44
2023/07/10 10:34:59;;;;;;;2.53;2.17;;;;;;;27.03;55.77;101713.94;4977823;28;97128;-44
2023/07/10 10:37:46;;;;;;;2.30;2.10;;;;;;;27.23;55.65;101709.91;4974616;28;97568;-45
2023/07/10 10:40:40;;;;;;;2.50;2.30;;;;;;;27.36;55.54;101716.00;4974239;28;97102;-44
2023/07/10 10:43:11;;;;;;;2.07;1.87;;;;;;;27.54;54.81;101722.34;4976820;28;97265;-44
2023/07/10 10:45:42;;;;;;;2.33;2.07;;;;;;;27.62;54.12;101711.66;4977494;28;97876;-44
2023/07/10 10:48:39;;;;;;;1.83;1.73;;;;;;;27.60;53.25;101716.41;4973775;28;96680;-45
2023/07/10 10:51:24;;;;;;;2.03;1.80;;;;;;;27.68;53.39;101719.88;4976892;28;96645;-44
2023/07/10 10:54:05;;;;;;;1.70;1.60;;;;;;;27.85;52.49;101720.53;4974791;28;97114;-45
2023/07/10 10:57:13;;;;;;;2.40;2.00;;;;;;;27.76;51.78;101715.59;4975087;28;97225;-45
2023/07/10 10:59:44;;;;;;;1.77;1.67;;;;;;;27.65;52.70;101710.50;4974232;28;97241;-44
2023/07/10 11:02:28;;;;;;;1.90;1.80;;;;;;;27.71;52.06;101719.44;4976488;28;96904;-45
2023/07/10 11:05:31;;;;;;;3.70;1.90;;;;;;;27.85;52.21;101722.66;4973898;28;97163;-45
2023/07/10 11:08:00;;;;;;;2.07;1.67;;;;;;;27.84;53.00;101721.88;4975817;28;97097;-44
2023/07/10 11:10:30;;;;;;;1.80;1.70;;;;;;;27.92;51.86;101725.34;4979428;28;97111;-44
2023/07/10 11:12:56;;;;;;;1.37;1.27;;;;;;;28.01;52.22;101718.25;4978606;28;97206;-44
2023/07/10 11:15:22;;;;;;;2.63;1.40;;;;;;;28.11;51.68;101721.88;4979610;28;96665;-44
2023/07/10 11:17:53;;;;;;;3.93;2.30;;;;;;;28.27;50.85;101733.66;4977503;28;99328;-44
2023/07/10 11:20:20;;;;;;;2.20;1.60;;;;;;;28.36;51.17;101730.88;4979979;28;97086;-45
2023/07/10 11:22:57;;;;;;;1.77;1.67;;;;;;;28.40;50.02;101725.50;4977705;28;97127;-44
2023/07/10 11:25:30;;;;;;;2.77;2.10;;;;;;;28.40;49.48;101738.91;4978097;28;96696;-45
2023/07/10 11:28:01;;;;;;;2.63;1.83;;;;;;;28.34;50.14;101744.88;4980296;28;97508;-44
2023/07/10 11:30:34;;;;;;;1.50;1.40;;;;;;;28.27;49.79;101740.06;4976851;28;97587;-44